• Join FlightAware (Why Join?)
  • Login
  • US Flag 
05:35AM EDT


 

Airport Tracker/Info


-or-


 

Live Flight TrackerFlight Track Log ✈ N779NC ✈ 04-Jul-2013 ✈ KLIT - KATL

Flight Track Log - Related Links

Times and Time Zones

All times are in EDT time to prevent confusion due to time zone crossing. See the N779NC flight status page for this flight to view local times or setup timezone preferences in your user account.

Time Position Orientation Groundspeed Altitude Reporting Facility
EDT Latitude Longitude Course Direction KTS MPH feet Rate Location/Type
09:56AM 34.7133 -92.2519 197° South 188 216 800  Level Memphis Center
09:58AM 34.6378 -92.2806 197° South 257 296 3,100 1,680 Climbing Memphis Center
09:59AM 34.6097 -92.2067 115° Southeast 270 311 4,800 1,860 Climbing Memphis Center
10:00AM 34.6422 -92.1242 64° Northeast 260 299 6,900 1,920 Climbing Memphis Center
10:01AM 34.6878 -92.0014 66° East 283 326 9,700 1,680 Climbing Memphis Center
10:02AM 34.7017 -91.9056 80° East 283 326 11,200 960 Climbing Memphis Center
10:03AM 34.7153 -91.7947 81° East 304 350 11,700 1,320 Climbing Memphis Center
10:04AM 34.7314 -91.6611 82° East 343 395 13,900 1,920 Climbing Memphis Center
10:05AM 34.7514 -91.5375 79° East 366 421 15,600 1,680 Climbing Memphis Center
10:06AM 34.7775 -91.4114 76° East 377 434 17,300 1,500 Climbing Memphis Center
10:07AM 34.7994 -91.2803 78° East 384 442 18,700 1,200 Climbing Memphis Center
10:08AM 34.8253 -91.1617 75° East 394 453 19,800 1,200 Climbing Memphis Center
10:09AM 34.8511 -91.0228 77° East 406 467 21,100 1,380 Climbing Memphis Center
10:10AM 34.8853 -90.8836 73° East 416 479 22,600 1,320 Climbing Memphis Center
10:11AM 34.9211 -90.7472 72° East 416 479 23,800 960 Climbing Memphis Center
10:12AM 34.9528 -90.6003 75° East 432 497 24,600 900 Climbing Memphis Center
10:13AM 34.9928 -90.4533 72° East 445 512 25,700 900 Climbing Memphis Center
10:14AM 35.0344 -90.2911 73° East 445 512 26,500 780 Climbing Memphis Center
10:15AM 35.0761 -90.1389 71° East 459 528 27,300 780 Climbing Memphis Center
10:16AM 35.0569 -89.9917 99° East 446 513 28,100 660 Climbing Memphis Center
10:17AM 35.0083 -89.8550 113° Southeast 423 487 28,700 420 Climbing Memphis Center
10:18AM 34.9847 -89.7006 101° East 449 517 29,000 120 Climbing Memphis Center
10:19AM 34.9714 -89.5589 97° East 467 537 29,000  Level Memphis Center
10:20AM 34.9431 -89.4097 103° East 461 531 29,000  Level Memphis Center
10:21AM 34.9189 -89.2606 101° East 456 525 29,000  Level Memphis Center
10:22AM 34.8947 -89.1139 101° East 445 512 29,000  Level Memphis Center
10:23AM 34.8408 -88.9656 114° Southeast 440 506 29,000  Level Memphis Center
10:24AM 34.7811 -88.8375 120° Southeast 433 498 29,000  Level Memphis Center
10:25AM 34.7208 -88.7097 120° Southeast 439 505 29,000  Level Memphis Center
10:26AM 34.6544 -88.5847 123° Southeast 439 505 29,000  Level Memphis Center
10:27AM 34.6047 -88.4572 115° Southeast 428 493 29,000  Level Memphis Center
10:28AM 34.5525 -88.3222 115° Southeast 428 493 29,000  Level Memphis Center
10:29AM 34.5022 -88.1872 114° Southeast 428 493 29,000  Level Memphis Center
10:30AM 34.4453 -88.0450 116° Southeast 448 516 29,000  Level Memphis Center
10:31AM 34.4014 -87.9231 114° Southeast 448 516 29,000  Level Memphis Center
10:32AM 34.3506 -87.7861 114° Southeast 443 510 29,000  Level Memphis Center
10:34AM 34.2089 -87.4975 121° Southeast 455 524 29,000  Level Atlanta Center
10:35AM 34.1436 -87.3769 123° Southeast 440 506 29,000  Level Atlanta Center
10:36AM 34.1181 -87.2356 102° East 421 484 29,000  Level Atlanta Center
10:37AM 34.0842 -87.0911 106° East 427 491 29,000  Level Atlanta Center
10:38AM 34.0689 -86.9403 97° East 440 506 29,000  Level Atlanta Center
10:39AM 34.0600 -86.7844 94° East 451 519 29,000  Level Atlanta Center
10:40AM 34.0553 -86.6239 92° East 469 540 29,000 -300 Level Atlanta Center
10:41AM 34.0814 -86.4642 79° East 478 550 28,500 -600 Descending Atlanta Center
10:42AM 34.1033 -86.3017 81° East 483 556 27,800 -720 Descending Atlanta Center
10:43AM 34.1167 -86.1389 84° East 483 556 27,100 -780 Descending Atlanta Center
10:44AM 34.1214 -85.9786 88° East 478 550 26,300 -1,020 Descending Atlanta Center
10:45AM 34.1278 -85.8331 87° East 478 550 25,100 -1,920 Descending Atlanta Center
10:46AM 34.1344 -85.6550 87° East 460 529 22,500 -2,400 Descending Atlanta Center
10:47AM 34.1422 -85.5122 86° East 430 495 20,400 -2,400 Descending Atlanta Center
10:48AM 34.1458 -85.3817 88° East 397 457 17,800 -2,400 Descending Atlanta Center
10:49AM 34.1575 -85.2614 83° East 371 427 15,600 -2,160 Descending Atlanta Center
10:50AM 34.1672 -85.1433 84° East 360 414 13,500 -1,380 Descending Atlanta Center
10:51AM 34.1281 -85.0625 120° Southeast 311 358 12,900 -480 Descending Atlanta Center
10:52AM 34.0642 -84.9867 135° Southeast 301 346 12,600 -900 Descending Atlanta Center
10:53AM 34.0042 -84.9058 132° Southeast 311 358 11,200 -1,140 Descending Atlanta Center
10:54AM 33.9461 -84.8375 136° Southeast 311 358 10,400 -1,380 Descending Atlanta Center
10:55AM 33.8775 -84.8069 160° South 254 292 8,500 -1,860 Descending Atlanta Center
10:56AM 33.8167 -84.8000 175° South 268 308 7,400 -1,440 Descending Atlanta TRACON
10:57AM 33.7500 -84.8333 203° Southwest 263 303 6,100 -1,200 Descending Atlanta TRACON
10:58AM 33.7167 -84.8667 220° Southwest 243 280 5,000 -600 Descending Atlanta TRACON
10:59AM 33.6667 -84.8333 151° Southeast 209 241 5,000  Level Atlanta TRACON
11:00AM 33.6500 -84.7667 107° East 220 253 5,000  Level Atlanta TRACON
11:01AM 33.6500 -84.7000 90° East 216 249 5,000 -540 Level Atlanta TRACON
11:02AM 33.6500 -84.6333 90° East 198 228 4,000 -1,020 Descending Atlanta TRACON